sensor_id;sensor_type;location;lat;lon;timestamp;temperature;humidity
32522;DHT22;18963;51.504;5.316;2023-07-31T00:00:58;15.70;99.90
32522;DHT22;18963;51.504;5.316;2023-07-31T00:03:23;15.70;99.90
32522;DHT22;18963;51.504;5.316;2023-07-31T00:05:49;15.70;99.90
32522;DHT22;18963;51.504;5.316;2023-07-31T00:08:14;15.70;99.90
32522;DHT22;18963;51.504;5.316;2023-07-31T00:10:40;15.70;99.90
32522;DHT22;18963;51.504;5.316;2023-07-31T00:13:05;15.70;99.90
32522;DHT22;18963;51.504;5.316;2023-07-31T00:15:31;15.70;99.90
32522;DHT22;18963;51.504;5.316;2023-07-31T00:17:56;15.70;99.90
32522;DHT22;18963;51.504;5.316;2023-07-31T00:20:22;15.70;99.90
32522;DHT22;18963;51.504;5.316;2023-07-31T00:22:48;15.70;99.90
32522;DHT22;18963;51.504;5.316;2023-07-31T00:25:13;15.70;99.90
32522;DHT22;18963;51.504;5.316;2023-07-31T00:27:39;15.70;99.90
32522;DHT22;18963;51.504;5.316;2023-07-31T00:30:09;15.60;99.90
32522;DHT22;18963;51.504;5.316;2023-07-31T00:32:35;15.70;99.90
32522;DHT22;18963;51.504;5.316;2023-07-31T00:35:00;15.70;99.90
32522;DHT22;18963;51.504;5.316;2023-07-31T00:37:27;15.70;99.90
32522;DHT22;18963;51.504;5.316;2023-07-31T00:39:52;15.60;99.90
32522;DHT22;18963;51.504;5.316;2023-07-31T00:42:18;15.70;99.90
32522;DHT22;18963;51.504;5.316;2023-07-31T00:44:43;15.70;99.90
32522;DHT22;18963;51.504;5.316;2023-07-31T00:47:09;15.70;99.90
32522;DHT22;18963;51.504;5.316;2023-07-31T00:49:34;15.70;99.90
32522;DHT22;18963;51.504;5.316;2023-07-31T00:52:00;15.70;99.90
32522;DHT22;18963;51.504;5.316;2023-07-31T00:54:26;15.70;99.90
32522;DHT22;18963;51.504;5.316;2023-07-31T00:56:51;15.70;99.90
32522;DHT22;18963;51.504;5.316;2023-07-31T00:59:18;15.70;99.90
32522;DHT22;18963;51.504;5.316;2023-07-31T01:01:44;15.70;99.90
32522;DHT22;18963;51.504;5.316;2023-07-31T01:04:10;15.70;99.90
32522;DHT22;18963;51.504;5.316;2023-07-31T01:06:40;15.70;99.90
32522;DHT22;18963;51.504;5.316;2023-07-31T01:09:19;15.70;99.90
32522;DHT22;18963;51.504;5.316;2023-07-31T01:11:46;15.60;99.90
32522;DHT22;18963;51.504;5.316;2023-07-31T01:14:14;15.70;99.90
32522;DHT22;18963;51.504;5.316;2023-07-31T01:16:39;15.60;99.90
32522;DHT22;18963;51.504;5.316;2023-07-31T01:19:05;15.60;99.90
32522;DHT22;18963;51.504;5.316;2023-07-31T01:26:56;15.60;99.90
32522;DHT22;18963;51.504;5.316;2023-07-31T01:29:25;15.70;99.90
32522;DHT22;18963;51.504;5.316;2023-07-31T01:31:53;15.60;99.90
32522;DHT22;18963;51.504;5.316;2023-07-31T01:34:20;15.60;99.90
32522;DHT22;18963;51.504;5.316;2023-07-31T01:36:47;15.60;99.90
32522;DHT22;18963;51.504;5.316;2023-07-31T01:39:13;15.60;99.90
32522;DHT22;18963;51.504;5.316;2023-07-31T01:41:38;15.60;99.90
32522;DHT22;18963;51.504;5.316;2023-07-31T01:44:04;15.60;99.90
32522;DHT22;18963;51.504;5.316;2023-07-31T01:46:30;15.60;99.90
32522;DHT22;18963;51.504;5.316;2023-07-31T01:48:55;15.60;99.90
32522;DHT22;18963;51.504;5.316;2023-07-31T01:51:20;15.60;99.90
32522;DHT22;18963;51.504;5.316;2023-07-31T01:53:46;15.50;99.90
32522;DHT22;18963;51.504;5.316;2023-07-31T01:56:11;15.60;99.90
32522;DHT22;18963;51.504;5.316;2023-07-31T01:58:37;15.50;99.90
32522;DHT22;18963;51.504;5.316;2023-07-31T02:01:02;15.50;99.90
32522;DHT22;18963;51.504;5.316;2023-07-31T02:03:28;15.50;99.90
32522;DHT22;18963;51.504;5.316;2023-07-31T02:05:54;15.50;99.90
32522;DHT22;18963;51.504;5.316;2023-07-31T02:08:20;15.40;99.90
32522;DHT22;18963;51.504;5.316;2023-07-31T02:10:45;15.40;99.90
32522;DHT22;18963;51.504;5.316;2023-07-31T02:13:11;15.40;99.90
32522;DHT22;18963;51.504;5.316;2023-07-31T02:15:36;15.40;99.90
32522;DHT22;18963;51.504;5.316;2023-07-31T02:18:02;15.40;99.90
32522;DHT22;18963;51.504;5.316;2023-07-31T02:20:27;15.40;99.90
32522;DHT22;18963;51.504;5.316;2023-07-31T02:22:53;15.40;99.90
32522;DHT22;18963;51.504;5.316;2023-07-31T02:25:18;15.40;99.90
32522;DHT22;18963;51.504;5.316;2023-07-31T02:27:44;15.40;99.90
32522;DHT22;18963;51.504;5.316;2023-07-31T02:30:09;15.30;99.90
32522;DHT22;18963;51.504;5.316;2023-07-31T02:32:35;15.30;99.90
32522;DHT22;18963;51.504;5.316;2023-07-31T02:35:00;15.40;99.90
32522;DHT22;18963;51.504;5.316;2023-07-31T02:37:26;15.30;99.90
32522;DHT22;18963;51.504;5.316;2023-07-31T02:39:53;15.30;99.90
32522;DHT22;18963;51.504;5.316;2023-07-31T02:42:19;15.40;99.90
32522;DHT22;18963;51.504;5.316;2023-07-31T02:44:44;15.40;99.90
32522;DHT22;18963;51.504;5.316;2023-07-31T02:47:10;15.30;99.90
32522;DHT22;18963;51.504;5.316;2023-07-31T02:49:35;15.40;99.90
32522;DHT22;18963;51.504;5.316;2023-07-31T02:52:01;15.30;99.90
32522;DHT22;18963;51.504;5.316;2023-07-31T02:54:26;15.40;99.90
32522;DHT22;18963;51.504;5.316;2023-07-31T02:56:52;15.30;99.90
32522;DHT22;18963;51.504;5.316;2023-07-31T02:59:17;15.30;99.90
32522;DHT22;18963;51.504;5.316;2023-07-31T03:01:44;15.30;99.90
32522;DHT22;18963;51.504;5.316;2023-07-31T03:04:09;15.30;99.90
32522;DHT22;18963;51.504;5.316;2023-07-31T03:06:35;15.30;99.90
32522;DHT22;18963;51.504;5.316;2023-07-31T03:09:00;15.30;99.90
32522;DHT22;18963;51.504;5.316;2023-07-31T03:11:26;15.30;99.90
32522;DHT22;18963;51.504;5.316;2023-07-31T03:13:51;15.30;99.90
32522;DHT22;18963;51.504;5.316;2023-07-31T03:16:17;15.30;99.90
32522;DHT22;18963;51.504;5.316;2023-07-31T03:18:42;15.30;99.90
32522;DHT22;18963;51.504;5.316;2023-07-31T03:21:08;15.30;99.90
32522;DHT22;18963;51.504;5.316;2023-07-31T03:23:33;15.30;99.90
32522;DHT22;18963;51.504;5.316;2023-07-31T03:26:00;15.20;99.90
32522;DHT22;18963;51.504;5.316;2023-07-31T03:28:26;15.30;99.90
32522;DHT22;18963;51.504;5.316;2023-07-31T03:30:52;15.30;99.90
32522;DHT22;18963;51.504;5.316;2023-07-31T03:33:18;15.20;99.90
32522;DHT22;18963;51.504;5.316;2023-07-31T03:35:43;15.30;99.90
32522;DHT22;18963;51.504;5.316;2023-07-31T03:38:09;15.30;99.90
32522;DHT22;18963;51.504;5.316;2023-07-31T03:40:34;15.30;99.90
32522;DHT22;18963;51.504;5.316;2023-07-31T03:42:59;15.30;99.90
32522;DHT22;18963;51.504;5.316;2023-07-31T03:45:25;15.30;99.90
32522;DHT22;18963;51.504;5.316;2023-07-31T03:47:50;15.30;99.90
32522;DHT22;18963;51.504;5.316;2023-07-31T03:50:16;15.30;99.90
32522;DHT22;18963;51.504;5.316;2023-07-31T03:52:41;15.40;99.90
32522;DHT22;18963;51.504;5.316;2023-07-31T03:55:07;15.40;99.90
32522;DHT22;18963;51.504;5.316;2023-07-31T03:57:32;15.40;99.90
32522;DHT22;18963;51.504;5.316;2023-07-31T03:59:58;15.40;99.90
32522;DHT22;18963;51.504;5.316;2023-07-31T04:02:24;15.40;99.90
32522;DHT22;18963;51.504;5.316;2023-07-31T04:04:49;15.40;99.90
32522;DHT22;18963;51.504;5.316;2023-07-31T04:07:15;15.50;99.90
32522;DHT22;18963;51.504;5.316;2023-07-31T04:09:40;15.50;99.90
32522;DHT22;18963;51.504;5.316;2023-07-31T04:12:06;15.50;99.90
32522;DHT22;18963;51.504;5.316;2023-07-31T04:14:31;15.50;99.90
32522;DHT22;18963;51.504;5.316;2023-07-31T04:16:57;15.60;99.90
32522;DHT22;18963;51.504;5.316;2023-07-31T04:19:22;15.60;99.90
32522;DHT22;18963;51.504;5.316;2023-07-31T04:21:48;15.60;99.90
32522;DHT22;18963;51.504;5.316;2023-07-31T04:24:13;15.70;99.90
32522;DHT22;18963;51.504;5.316;2023-07-31T04:26:39;15.70;99.90
32522;DHT22;18963;51.504;5.316;2023-07-31T04:29:04;15.70;99.90
32522;DHT22;18963;51.504;5.316;2023-07-31T04:31:30;15.80;99.90
32522;DHT22;18963;51.504;5.316;2023-07-31T04:33:55;15.80;99.90
32522;DHT22;18963;51.504;5.316;2023-07-31T04:36:21;15.90;99.90
32522;DHT22;18963;51.504;5.316;2023-07-31T04:38:46;15.90;99.90
32522;DHT22;18963;51.504;5.316;2023-07-31T04:41:12;15.90;99.90
32522;DHT22;18963;51.504;5.316;2023-07-31T04:43:37;15.90;99.90
32522;DHT22;18963;51.504;5.316;2023-07-31T04:46:05;15.90;99.90
32522;DHT22;18963;51.504;5.316;2023-07-31T04:48:30;15.90;99.90
32522;DHT22;18963;51.504;5.316;2023-07-31T04:50:56;15.90;99.90
32522;DHT22;18963;51.504;5.316;2023-07-31T04:53:21;15.90;99.90
32522;DHT22;18963;51.504;5.316;2023-07-31T04:55:47;16.00;99.90
32522;DHT22;18963;51.504;5.316;2023-07-31T04:58:12;16.00;99.90
32522;DHT22;18963;51.504;5.316;2023-07-31T05:00:38;16.00;99.90
32522;DHT22;18963;51.504;5.316;2023-07-31T05:03:03;16.00;99.90
32522;DHT22;18963;51.504;5.316;2023-07-31T05:05:29;16.00;99.90
32522;DHT22;18963;51.504;5.316;2023-07-31T05:07:54;16.00;99.90
32522;DHT22;18963;51.504;5.316;2023-07-31T05:10:20;16.00;99.90
32522;DHT22;18963;51.504;5.316;2023-07-31T05:12:45;16.00;99.90
32522;DHT22;18963;51.504;5.316;2023-07-31T05:15:11;16.10;99.90
32522;DHT22;18963;51.504;5.316;2023-07-31T05:17:36;16.00;99.90
32522;DHT22;18963;51.504;5.316;2023-07-31T05:20:02;16.00;99.90
32522;DHT22;18963;51.504;5.316;2023-07-31T05:22:27;16.00;99.90
32522;DHT22;18963;51.504;5.316;2023-07-31T05:24:53;16.00;99.90
32522;DHT22;18963;51.504;5.316;2023-07-31T05:27:19;16.00;99.90
32522;DHT22;18963;51.504;5.316;2023-07-31T05:29:45;16.10;99.90
32522;DHT22;18963;51.504;5.316;2023-07-31T05:32:11;16.00;99.90
32522;DHT22;18963;51.504;5.316;2023-07-31T05:34:37;16.10;99.90
32522;DHT22;18963;51.504;5.316;2023-07-31T05:37:02;16.10;99.90
32522;DHT22;18963;51.504;5.316;2023-07-31T05:39:28;16.10;99.90
32522;DHT22;18963;51.504;5.316;2023-07-31T05:41:53;16.10;99.90
32522;DHT22;18963;51.504;5.316;2023-07-31T05:44:18;16.10;99.90
32522;DHT22;18963;51.504;5.316;2023-07-31T05:46:44;16.10;99.90
32522;DHT22;18963;51.504;5.316;2023-07-31T05:49:09;16.10;99.90
32522;DHT22;18963;51.504;5.316;2023-07-31T05:51:35;16.10;99.90
32522;DHT22;18963;51.504;5.316;2023-07-31T05:54:00;16.10;99.90
32522;DHT22;18963;51.504;5.316;2023-07-31T05:56:26;16.10;99.90
32522;DHT22;18963;51.504;5.316;2023-07-31T05:58:52;16.00;99.90
32522;DHT22;18963;51.504;5.316;2023-07-31T06:01:18;16.00;99.90
32522;DHT22;18963;51.504;5.316;2023-07-31T06:03:43;16.00;99.90
32522;DHT22;18963;51.504;5.316;2023-07-31T06:06:09;16.00;99.90
32522;DHT22;18963;51.504;5.316;2023-07-31T06:08:34;16.00;99.90
32522;DHT22;18963;51.504;5.316;2023-07-31T06:11:00;16.00;99.90
32522;DHT22;18963;51.504;5.316;2023-07-31T06:13:25;16.00;99.90
32522;DHT22;18963;51.504;5.316;2023-07-31T06:15:51;16.00;99.90
32522;DHT22;18963;51.504;5.316;2023-07-31T06:18:17;16.00;99.90
32522;DHT22;18963;51.504;5.316;2023-07-31T06:20:42;16.00;99.90
32522;DHT22;18963;51.504;5.316;2023-07-31T06:23:08;16.00;99.90
32522;DHT22;18963;51.504;5.316;2023-07-31T06:25:33;16.00;99.90
32522;DHT22;18963;51.504;5.316;2023-07-31T06:27:59;16.10;99.90
32522;DHT22;18963;51.504;5.316;2023-07-31T06:30:24;16.10;99.90
32522;DHT22;18963;51.504;5.316;2023-07-31T06:32:50;16.10;99.90
32522;DHT22;18963;51.504;5.316;2023-07-31T06:35:15;16.20;99.90
32522;DHT22;18963;51.504;5.316;2023-07-31T06:37:41;16.20;99.90
32522;DHT22;18963;51.504;5.316;2023-07-31T06:40:09;16.20;99.90
32522;DHT22;18963;51.504;5.316;2023-07-31T06:42:35;16.20;99.90
32522;DHT22;18963;51.504;5.316;2023-07-31T06:45:03;16.20;99.90
32522;DHT22;18963;51.504;5.316;2023-07-31T06:47:29;16.30;99.90
32522;DHT22;18963;51.504;5.316;2023-07-31T06:49:55;16.20;99.90
32522;DHT22;18963;51.504;5.316;2023-07-31T06:52:21;16.30;99.90
32522;DHT22;18963;51.504;5.316;2023-07-31T06:54:56;16.30;99.90
32522;DHT22;18963;51.504;5.316;2023-07-31T06:57:25;16.30;99.90
32522;DHT22;18963;51.504;5.316;2023-07-31T06:59:50;16.30;99.90
32522;DHT22;18963;51.504;5.316;2023-07-31T07:02:16;16.30;99.90
32522;DHT22;18963;51.504;5.316;2023-07-31T07:04:41;16.30;99.90
32522;DHT22;18963;51.504;5.316;2023-07-31T07:07:07;16.40;99.90
32522;DHT22;18963;51.504;5.316;2023-07-31T07:09:32;16.40;99.90
32522;DHT22;18963;51.504;5.316;2023-07-31T07:11:58;16.40;99.90
32522;DHT22;18963;51.504;5.316;2023-07-31T07:14:23;16.40;99.90
32522;DHT22;18963;51.504;5.316;2023-07-31T07:16:52;16.50;99.90
32522;DHT22;18963;51.504;5.316;2023-07-31T07:19:17;16.50;99.90
32522;DHT22;18963;51.504;5.316;2023-07-31T07:21:43;16.50;99.90
32522;DHT22;18963;51.504;5.316;2023-07-31T07:24:08;16.50;99.90
32522;DHT22;18963;51.504;5.316;2023-07-31T07:26:34;16.60;99.90
32522;DHT22;18963;51.504;5.316;2023-07-31T07:28:59;16.60;99.90
32522;DHT22;18963;51.504;5.316;2023-07-31T07:31:27;16.50;99.90
32522;DHT22;18963;51.504;5.316;2023-07-31T07:33:53;16.60;99.90
32522;DHT22;18963;51.504;5.316;2023-07-31T07:36:18;16.60;99.90
32522;DHT22;18963;51.504;5.316;2023-07-31T07:38:44;16.60;99.90
32522;DHT22;18963;51.504;5.316;2023-07-31T07:41:09;16.60;99.90
32522;DHT22;18963;51.504;5.316;2023-07-31T07:43:35;16.60;99.90
32522;DHT22;18963;51.504;5.316;2023-07-31T07:46:00;16.60;99.90
32522;DHT22;18963;51.504;5.316;2023-07-31T07:48:26;16.60;99.90
32522;DHT22;18963;51.504;5.316;2023-07-31T07:50:51;16.70;99.90
32522;DHT22;18963;51.504;5.316;2023-07-31T07:53:17;16.70;99.90
32522;DHT22;18963;51.504;5.316;2023-07-31T07:55:42;16.80;99.90
32522;DHT22;18963;51.504;5.316;2023-07-31T07:58:08;16.80;99.90
32522;DHT22;18963;51.504;5.316;2023-07-31T08:00:33;16.80;99.90
32522;DHT22;18963;51.504;5.316;2023-07-31T08:02:59;16.70;99.90
32522;DHT22;18963;51.504;5.316;2023-07-31T08:05:24;16.70;99.90
32522;DHT22;18963;51.504;5.316;2023-07-31T08:07:50;16.80;99.90
32522;DHT22;18963;51.504;5.316;2023-07-31T08:10:15;16.80;99.90
32522;DHT22;18963;51.504;5.316;2023-07-31T08:12:41;16.80;99.90
32522;DHT22;18963;51.504;5.316;2023-07-31T08:15:07;16.80;99.90
32522;DHT22;18963;51.504;5.316;2023-07-31T08:17:33;16.80;99.90
32522;DHT22;18963;51.504;5.316;2023-07-31T08:19:58;16.80;99.90
32522;DHT22;18963;51.504;5.316;2023-07-31T08:22:24;16.80;99.90
32522;DHT22;18963;51.504;5.316;2023-07-31T08:24:49;16.80;99.90
32522;DHT22;18963;51.504;5.316;2023-07-31T08:27:15;16.80;99.90
32522;DHT22;18963;51.504;5.316;2023-07-31T08:29:40;16.90;99.90
32522;DHT22;18963;51.504;5.316;2023-07-31T08:32:06;16.90;99.90
32522;DHT22;18963;51.504;5.316;2023-07-31T08:34:31;16.90;99.90
32522;DHT22;18963;51.504;5.316;2023-07-31T08:36:57;16.90;99.90
32522;DHT22;18963;51.504;5.316;2023-07-31T08:39:22;16.90;99.90
32522;DHT22;18963;51.504;5.316;2023-07-31T08:41:48;16.90;99.90
32522;DHT22;18963;51.504;5.316;2023-07-31T08:44:13;16.90;99.90
32522;DHT22;18963;51.504;5.316;2023-07-31T08:46:40;16.90;99.90
32522;DHT22;18963;51.504;5.316;2023-07-31T08:49:07;16.90;99.90
32522;DHT22;18963;51.504;5.316;2023-07-31T08:51:36;16.90;99.90
32522;DHT22;18963;51.504;5.316;2023-07-31T08:54:02;16.90;99.90
32522;DHT22;18963;51.504;5.316;2023-07-31T08:56:29;17.00;99.90
32522;DHT22;18963;51.504;5.316;2023-07-31T08:58:55;17.10;99.90
32522;DHT22;18963;51.504;5.316;2023-07-31T09:01:20;17.10;99.90
32522;DHT22;18963;51.504;5.316;2023-07-31T09:03:47;17.20;99.90
32522;DHT22;18963;51.504;5.316;2023-07-31T09:06:13;17.20;99.90
32522;DHT22;18963;51.504;5.316;2023-07-31T09:08:38;17.30;99.90
32522;DHT22;18963;51.504;5.316;2023-07-31T09:11:07;17.40;99.90
32522;DHT22;18963;51.504;5.316;2023-07-31T09:13:32;17.50;99.90
32522;DHT22;18963;51.504;5.316;2023-07-31T09:15:58;17.50;99.90
32522;DHT22;18963;51.504;5.316;2023-07-31T09:18:24;17.60;99.90
32522;DHT22;18963;51.504;5.316;2023-07-31T09:21:05;17.70;99.90
32522;DHT22;18963;51.504;5.316;2023-07-31T09:23:43;17.70;99.90
32522;DHT22;18963;51.504;5.316;2023-07-31T09:26:09;17.70;99.90
32522;DHT22;18963;51.504;5.316;2023-07-31T09:28:34;17.80;99.90
32522;DHT22;18963;51.504;5.316;2023-07-31T09:31:00;17.90;99.90
32522;DHT22;18963;51.504;5.316;2023-07-31T09:33:25;18.00;99.90
32522;DHT22;18963;51.504;5.316;2023-07-31T09:35:51;18.00;99.90
32522;DHT22;18963;51.504;5.316;2023-07-31T09:38:16;18.10;99.90
32522;DHT22;18963;51.504;5.316;2023-07-31T09:40:43;18.20;99.90
32522;DHT22;18963;51.504;5.316;2023-07-31T09:43:09;18.20;99.90
32522;DHT22;18963;51.504;5.316;2023-07-31T09:45:39;18.30;99.90
32522;DHT22;18963;51.504;5.316;2023-07-31T09:48:08;18.30;99.90
32522;DHT22;18963;51.504;5.316;2023-07-31T09:50:36;18.30;99.90
32522;DHT22;18963;51.504;5.316;2023-07-31T09:53:01;18.30;99.90
32522;DHT22;18963;51.504;5.316;2023-07-31T09:55:27;18.30;99.90
32522;DHT22;18963;51.504;5.316;2023-07-31T09:57:53;18.40;99.90
32522;DHT22;18963;51.504;5.316;2023-07-31T10:00:20;18.40;99.90
32522;DHT22;18963;51.504;5.316;2023-07-31T10:02:50;18.40;99.90
32522;DHT22;18963;51.504;5.316;2023-07-31T10:05:16;18.40;99.90
32522;DHT22;18963;51.504;5.316;2023-07-31T10:07:43;18.50;99.90
32522;DHT22;18963;51.504;5.316;2023-07-31T10:10:08;18.60;99.90
32522;DHT22;18963;51.504;5.316;2023-07-31T10:12:34;18.70;99.90
32522;DHT22;18963;51.504;5.316;2023-07-31T10:15:01;18.80;99.90
32522;DHT22;18963;51.504;5.316;2023-07-31T10:17:27;18.90;99.90
32522;DHT22;18963;51.504;5.316;2023-07-31T10:19:53;18.90;99.90
32522;DHT22;18963;51.504;5.316;2023-07-31T10:22:19;19.10;99.90
32522;DHT22;18963;51.504;5.316;2023-07-31T10:24:45;19.10;99.90
32522;DHT22;18963;51.504;5.316;2023-07-31T10:27:10;19.20;99.90
32522;DHT22;18963;51.504;5.316;2023-07-31T10:29:39;19.20;99.90
32522;DHT22;18963;51.504;5.316;2023-07-31T10:32:06;19.30;99.90
32522;DHT22;18963;51.504;5.316;2023-07-31T10:34:35;19.40;99.90
32522;DHT22;18963;51.504;5.316;2023-07-31T10:39:45;19.50;99.90
32522;DHT22;18963;51.504;5.316;2023-07-31T10:42:20;19.50;99.90
32522;DHT22;18963;51.504;5.316;2023-07-31T10:44:56;19.60;99.90
32522;DHT22;18963;51.504;5.316;2023-07-31T10:47:22;19.60;99.90
32522;DHT22;18963;51.504;5.316;2023-07-31T10:49:48;19.50;99.90
32522;DHT22;18963;51.504;5.316;2023-07-31T10:52:14;19.50;99.90
32522;DHT22;18963;51.504;5.316;2023-07-31T10:54:45;19.50;99.90
32522;DHT22;18963;51.504;5.316;2023-07-31T10:57:20;19.60;99.90
32522;DHT22;18963;51.504;5.316;2023-07-31T10:59:46;19.50;99.90
32522;DHT22;18963;51.504;5.316;2023-07-31T11:02:23;19.50;99.90
32522;DHT22;18963;51.504;5.316;2023-07-31T11:05:06;19.50;99.90
32522;DHT22;18963;51.504;5.316;2023-07-31T11:07:50;19.70;99.90
32522;DHT22;18963;51.504;5.316;2023-07-31T11:10:19;19.80;99.90
32522;DHT22;18963;51.504;5.316;2023-07-31T11:12:45;19.80;99.90
32522;DHT22;18963;51.504;5.316;2023-07-31T11:15:11;19.90;99.90
32522;DHT22;18963;51.504;5.316;2023-07-31T11:17:40;19.80;99.90
32522;DHT22;18963;51.504;5.316;2023-07-31T11:20:06;19.70;99.90
32522;DHT22;18963;51.504;5.316;2023-07-31T11:22:35;19.70;99.90
32522;DHT22;18963;51.504;5.316;2023-07-31T11:25:02;19.70;99.90
32522;DHT22;18963;51.504;5.316;2023-07-31T11:27:28;19.70;99.90
32522;DHT22;18963;51.504;5.316;2023-07-31T11:29:59;19.70;99.90
32522;DHT22;18963;51.504;5.316;2023-07-31T11:32:25;19.90;99.90
32522;DHT22;18963;51.504;5.316;2023-07-31T11:34:52;20.10;99.90
32522;DHT22;18963;51.504;5.316;2023-07-31T11:37:17;20.40;99.90
32522;DHT22;18963;51.504;5.316;2023-07-31T11:39:43;20.60;99.90
32522;DHT22;18963;51.504;5.316;2023-07-31T11:42:08;20.90;99.90
32522;DHT22;18963;51.504;5.316;2023-07-31T11:44:37;21.00;99.90
32522;DHT22;18963;51.504;5.316;2023-07-31T11:47:03;21.00;99.90
32522;DHT22;18963;51.504;5.316;2023-07-31T11:49:29;21.10;99.90
32522;DHT22;18963;51.504;5.316;2023-07-31T11:51:54;20.90;99.90
32522;DHT22;18963;51.504;5.316;2023-07-31T11:54:20;20.80;99.90
32522;DHT22;18963;51.504;5.316;2023-07-31T11:56:45;20.60;99.90
32522;DHT22;18963;51.504;5.316;2023-07-31T11:59:11;20.40;99.90
32522;DHT22;18963;51.504;5.316;2023-07-31T12:01:38;20.30;99.90
32522;DHT22;18963;51.504;5.316;2023-07-31T12:04:03;20.30;99.90
32522;DHT22;18963;51.504;5.316;2023-07-31T12:06:32;20.20;99.90
32522;DHT22;18963;51.504;5.316;2023-07-31T12:09:02;20.10;99.90
32522;DHT22;18963;51.504;5.316;2023-07-31T12:11:28;20.00;99.90
32522;DHT22;18963;51.504;5.316;2023-07-31T12:13:53;19.80;99.90
32522;DHT22;18963;51.504;5.316;2023-07-31T12:16:19;19.90;99.90
32522;DHT22;18963;51.504;5.316;2023-07-31T12:18:44;19.90;99.90
32522;DHT22;18963;51.504;5.316;2023-07-31T12:21:10;19.70;99.90
32522;DHT22;18963;51.504;5.316;2023-07-31T12:23:38;19.70;99.90
32522;DHT22;18963;51.504;5.316;2023-07-31T12:26:11;19.60;99.90
32522;DHT22;18963;51.504;5.316;2023-07-31T12:28:41;19.50;99.90
32522;DHT22;18963;51.504;5.316;2023-07-31T12:31:11;19.40;99.90
32522;DHT22;18963;51.504;5.316;2023-07-31T12:33:37;19.30;99.90
32522;DHT22;18963;51.504;5.316;2023-07-31T12:36:13;19.10;99.90
32522;DHT22;18963;51.504;5.316;2023-07-31T12:38:39;19.10;99.90
32522;DHT22;18963;51.504;5.316;2023-07-31T12:41:05;19.00;99.90
32522;DHT22;18963;51.504;5.316;2023-07-31T12:43:32;18.90;99.90
32522;DHT22;18963;51.504;5.316;2023-07-31T12:45:58;18.80;99.90
32522;DHT22;18963;51.504;5.316;2023-07-31T12:48:23;18.80;99.90
32522;DHT22;18963;51.504;5.316;2023-07-31T12:50:49;18.80;99.90
32522;DHT22;18963;51.504;5.316;2023-07-31T12:53:17;18.80;99.90
32522;DHT22;18963;51.504;5.316;2023-07-31T12:55:43;18.90;99.90
32522;DHT22;18963;51.504;5.316;2023-07-31T12:58:08;18.90;99.90
32522;DHT22;18963;51.504;5.316;2023-07-31T13:00:33;19.00;99.90
32522;DHT22;18963;51.504;5.316;2023-07-31T13:02:59;19.00;99.90
32522;DHT22;18963;51.504;5.316;2023-07-31T13:05:26;19.10;99.90
32522;DHT22;18963;51.504;5.316;2023-07-31T13:07:51;19.20;99.90
32522;DHT22;18963;51.504;5.316;2023-07-31T13:10:17;19.30;99.90
32522;DHT22;18963;51.504;5.316;2023-07-31T13:12:42;19.30;99.90
32522;DHT22;18963;51.504;5.316;2023-07-31T13:15:08;19.40;99.90
32522;DHT22;18963;51.504;5.316;2023-07-31T13:17:33;19.40;99.90
32522;DHT22;18963;51.504;5.316;2023-07-31T13:19:59;19.40;99.90
32522;DHT22;18963;51.504;5.316;2023-07-31T13:22:25;19.30;99.90
32522;DHT22;18963;51.504;5.316;2023-07-31T13:24:50;19.30;99.90
32522;DHT22;18963;51.504;5.316;2023-07-31T13:27:16;19.30;99.90
32522;DHT22;18963;51.504;5.316;2023-07-31T13:29:44;19.30;99.90
32522;DHT22;18963;51.504;5.316;2023-07-31T13:32:09;19.20;99.90
32522;DHT22;18963;51.504;5.316;2023-07-31T13:34:35;19.20;99.90
32522;DHT22;18963;51.504;5.316;2023-07-31T13:37:00;19.10;99.90
32522;DHT22;18963;51.504;5.316;2023-07-31T13:39:26;19.10;99.90
32522;DHT22;18963;51.504;5.316;2023-07-31T13:41:51;19.10;99.90
32522;DHT22;18963;51.504;5.316;2023-07-31T13:44:17;19.10;99.90
32522;DHT22;18963;51.504;5.316;2023-07-31T13:46:42;19.10;99.90
32522;DHT22;18963;51.504;5.316;2023-07-31T13:49:08;19.10;99.90
32522;DHT22;18963;51.504;5.316;2023-07-31T13:51:33;19.00;99.90
32522;DHT22;18963;51.504;5.316;2023-07-31T13:53:59;19.00;99.90
32522;DHT22;18963;51.504;5.316;2023-07-31T13:56:24;18.90;99.90
32522;DHT22;18963;51.504;5.316;2023-07-31T13:58:50;18.90;99.90
32522;DHT22;18963;51.504;5.316;2023-07-31T14:01:15;18.90;99.90
32522;DHT22;18963;51.504;5.316;2023-07-31T14:03:41;18.80;99.90
32522;DHT22;18963;51.504;5.316;2023-07-31T14:06:06;18.70;99.90
32522;DHT22;18963;51.504;5.316;2023-07-31T14:08:32;18.70;99.90
32522;DHT22;18963;51.504;5.316;2023-07-31T14:10:57;18.60;99.90
32522;DHT22;18963;51.504;5.316;2023-07-31T14:13:23;18.50;99.90
32522;DHT22;18963;51.504;5.316;2023-07-31T14:15:48;18.50;99.90
32522;DHT22;18963;51.504;5.316;2023-07-31T14:18:14;18.40;99.90
32522;DHT22;18963;51.504;5.316;2023-07-31T14:20:39;18.40;99.90
32522;DHT22;18963;51.504;5.316;2023-07-31T14:23:05;18.40;99.90
32522;DHT22;18963;51.504;5.316;2023-07-31T14:25:30;18.40;99.90
32522;DHT22;18963;51.504;5.316;2023-07-31T14:27:56;18.40;99.90
32522;DHT22;18963;51.504;5.316;2023-07-31T14:30:21;18.40;99.90
32522;DHT22;18963;51.504;5.316;2023-07-31T14:32:47;18.40;99.90
32522;DHT22;18963;51.504;5.316;2023-07-31T14:35:12;18.40;99.90
32522;DHT22;18963;51.504;5.316;2023-07-31T14:37:44;18.50;99.90
32522;DHT22;18963;51.504;5.316;2023-07-31T14:40:10;18.50;99.90
32522;DHT22;18963;51.504;5.316;2023-07-31T14:42:37;18.60;99.90
32522;DHT22;18963;51.504;5.316;2023-07-31T14:45:06;18.60;99.90
32522;DHT22;18963;51.504;5.316;2023-07-31T14:47:32;18.70;99.90
32522;DHT22;18963;51.504;5.316;2023-07-31T14:49:58;18.60;99.90
32522;DHT22;18963;51.504;5.316;2023-07-31T14:52:24;18.60;99.90
32522;DHT22;18963;51.504;5.316;2023-07-31T14:54:49;18.50;99.90
32522;DHT22;18963;51.504;5.316;2023-07-31T14:57:15;18.50;99.90
32522;DHT22;18963;51.504;5.316;2023-07-31T14:59:40;18.40;99.90
32522;DHT22;18963;51.504;5.316;2023-07-31T15:02:06;18.40;99.90
32522;DHT22;18963;51.504;5.316;2023-07-31T15:04:32;18.40;99.90
32522;DHT22;18963;51.504;5.316;2023-07-31T15:06:57;18.40;99.90
32522;DHT22;18963;51.504;5.316;2023-07-31T15:09:23;18.40;99.90
32522;DHT22;18963;51.504;5.316;2023-07-31T15:11:48;18.40;99.90
32522;DHT22;18963;51.504;5.316;2023-07-31T15:14:14;18.40;99.90
32522;DHT22;18963;51.504;5.316;2023-07-31T15:16:39;18.40;99.90
32522;DHT22;18963;51.504;5.316;2023-07-31T15:19:05;18.30;99.90
32522;DHT22;18963;51.504;5.316;2023-07-31T15:21:30;18.30;99.90
32522;DHT22;18963;51.504;5.316;2023-07-31T15:23:56;18.30;99.90
32522;DHT22;18963;51.504;5.316;2023-07-31T15:26:21;18.20;99.90
32522;DHT22;18963;51.504;5.316;2023-07-31T15:28:49;18.20;99.90
32522;DHT22;18963;51.504;5.316;2023-07-31T15:31:14;18.10;99.90